sensor_id;sensor_type;location;lat;lon;timestamp;temperature;humidity
8422;DHT22;4248;48.196;10.924;2023-03-15T00:00:45;5.60;48.90
8422;DHT22;4248;48.196;10.924;2023-03-15T00:03:11;5.50;48.80
8422;DHT22;4248;48.196;10.924;2023-03-15T00:05:42;5.50;48.80
8422;DHT22;4248;48.196;10.924;2023-03-15T00:08:08;5.40;49.00
8422;DHT22;4248;48.196;10.924;2023-03-15T00:10:33;5.40;50.00
8422;DHT22;4248;48.196;10.924;2023-03-15T00:12:59;5.10;51.70
8422;DHT22;4248;48.196;10.924;2023-03-15T00:15:25;4.30;54.70
8422;DHT22;4248;48.196;10.924;2023-03-15T00:17:50;3.60;57.80
8422;DHT22;4248;48.196;10.924;2023-03-15T00:20:16;3.40;59.00
8422;DHT22;4248;48.196;10.924;2023-03-15T00:22:44;3.10;60.30
8422;DHT22;4248;48.196;10.924;2023-03-15T00:25:09;2.80;61.50
8422;DHT22;4248;48.196;10.924;2023-03-15T00:27:35;2.70;62.90
8422;DHT22;4248;48.196;10.924;2023-03-15T00:30:01;2.60;63.80
8422;DHT22;4248;48.196;10.924;2023-03-15T00:32:26;2.60;64.10
8422;DHT22;4248;48.196;10.924;2023-03-15T00:34:52;2.60;64.10
8422;DHT22;4248;48.196;10.924;2023-03-15T00:37:20;2.70;64.10
8422;DHT22;4248;48.196;10.924;2023-03-15T00:39:46;2.70;63.40
8422;DHT22;4248;48.196;10.924;2023-03-15T00:42:12;2.90;62.70
8422;DHT22;4248;48.196;10.924;2023-03-15T00:44:41;2.90;61.60
8422;DHT22;4248;48.196;10.924;2023-03-15T00:47:11;3.00;61.10
8422;DHT22;4248;48.196;10.924;2023-03-15T00:49:37;3.00;60.80
8422;DHT22;4248;48.196;10.924;2023-03-15T00:52:03;3.10;60.60
8422;DHT22;4248;48.196;10.924;2023-03-15T00:54:29;3.10;60.30
8422;DHT22;4248;48.196;10.924;2023-03-15T00:56:58;3.20;60.00
8422;DHT22;4248;48.196;10.924;2023-03-15T00:59:24;3.20;60.00
8422;DHT22;4248;48.196;10.924;2023-03-15T01:01:49;3.20;59.60
8422;DHT22;4248;48.196;10.924;2023-03-15T01:04:15;3.20;59.70
8422;DHT22;4248;48.196;10.924;2023-03-15T01:06:41;3.20;59.70
8422;DHT22;4248;48.196;10.924;2023-03-15T01:09:08;3.00;59.70
8422;DHT22;4248;48.196;10.924;2023-03-15T01:11:34;3.20;59.70
8422;DHT22;4248;48.196;10.924;2023-03-15T01:14:00;3.20;59.60
8422;DHT22;4248;48.196;10.924;2023-03-15T01:16:28;3.20;59.60
8422;DHT22;4248;48.196;10.924;2023-03-15T01:18:57;3.20;59.70
8422;DHT22;4248;48.196;10.924;2023-03-15T01:21:22;3.10;59.50
8422;DHT22;4248;48.196;10.924;2023-03-15T01:23:49;3.10;59.70
8422;DHT22;4248;48.196;10.924;2023-03-15T01:26:16;3.10;60.30
8422;DHT22;4248;48.196;10.924;2023-03-15T01:28:42;3.10;60.50
8422;DHT22;4248;48.196;10.924;2023-03-15T01:31:26;3.10;61.00
8422;DHT22;4248;48.196;10.924;2023-03-15T01:33:52;3.10;60.60
8422;DHT22;4248;48.196;10.924;2023-03-15T01:36:17;3.20;61.10
8422;DHT22;4248;48.196;10.924;2023-03-15T01:38:43;3.20;60.80
8422;DHT22;4248;48.196;10.924;2023-03-15T01:41:11;3.20;60.90
8422;DHT22;4248;48.196;10.924;2023-03-15T01:43:37;3.30;60.60
8422;DHT22;4248;48.196;10.924;2023-03-15T01:46:11;3.30;60.40
8422;DHT22;4248;48.196;10.924;2023-03-15T01:48:43;3.30;61.40
8422;DHT22;4248;48.196;10.924;2023-03-15T01:51:37;3.10;62.50
8422;DHT22;4248;48.196;10.924;2023-03-15T01:54:16;3.20;62.70
8422;DHT22;4248;48.196;10.924;2023-03-15T01:56:48;3.20;62.90
8422;DHT22;4248;48.196;10.924;2023-03-15T01:59:21;3.20;63.10
8422;DHT22;4248;48.196;10.924;2023-03-15T02:01:48;3.10;64.00
8422;DHT22;4248;48.196;10.924;2023-03-15T02:04:40;3.00;65.40
8422;DHT22;4248;48.196;10.924;2023-03-15T02:07:07;3.00;66.40
8422;DHT22;4248;48.196;10.924;2023-03-15T02:12:14;2.80;69.00
8422;DHT22;4248;48.196;10.924;2023-03-15T02:14:39;2.70;70.20
8422;DHT22;4248;48.196;10.924;2023-03-15T02:17:06;2.70;70.80
8422;DHT22;4248;48.196;10.924;2023-03-15T02:25:41;2.10;72.70
8422;DHT22;4248;48.196;10.924;2023-03-15T02:28:12;1.90;73.20
8422;DHT22;4248;48.196;10.924;2023-03-15T02:30:39;2.00;72.90
8422;DHT22;4248;48.196;10.924;2023-03-15T02:33:12;1.90;72.70
8422;DHT22;4248;48.196;10.924;2023-03-15T02:35:40;2.00;72.30
8422;DHT22;4248;48.196;10.924;2023-03-15T02:38:05;2.00;72.00
8422;DHT22;4248;48.196;10.924;2023-03-15T02:40:31;2.00;71.60
8422;DHT22;4248;48.196;10.924;2023-03-15T02:43:00;2.10;71.10
8422;DHT22;4248;48.196;10.924;2023-03-15T02:45:28;2.00;71.10
8422;DHT22;4248;48.196;10.924;2023-03-15T02:47:56;2.00;71.10
8422;DHT22;4248;48.196;10.924;2023-03-15T02:50:22;2.00;71.10
8422;DHT22;4248;48.196;10.924;2023-03-15T02:52:47;2.00;71.10
8422;DHT22;4248;48.196;10.924;2023-03-15T02:55:13;2.10;71.30
8422;DHT22;4248;48.196;10.924;2023-03-15T02:57:39;2.10;71.10
8422;DHT22;4248;48.196;10.924;2023-03-15T03:00:05;2.20;71.20
8422;DHT22;4248;48.196;10.924;2023-03-15T03:02:42;2.30;70.70
8422;DHT22;4248;48.196;10.924;2023-03-15T03:05:08;2.40;70.30
8422;DHT22;4248;48.196;10.924;2023-03-15T03:07:34;2.40;70.00
8422;DHT22;4248;48.196;10.924;2023-03-15T03:10:00;2.30;69.90
8422;DHT22;4248;48.196;10.924;2023-03-15T03:12:26;2.40;70.00
8422;DHT22;4248;48.196;10.924;2023-03-15T03:14:51;2.40;69.70
8422;DHT22;4248;48.196;10.924;2023-03-15T03:17:17;2.30;69.60
8422;DHT22;4248;48.196;10.924;2023-03-15T03:19:43;2.30;69.50
8422;DHT22;4248;48.196;10.924;2023-03-15T03:22:09;2.40;69.50
8422;DHT22;4248;48.196;10.924;2023-03-15T03:24:37;2.30;69.40
8422;DHT22;4248;48.196;10.924;2023-03-15T03:27:03;2.30;69.60
8422;DHT22;4248;48.196;10.924;2023-03-15T03:29:29;2.40;69.60
8422;DHT22;4248;48.196;10.924;2023-03-15T03:31:54;2.40;69.40
8422;DHT22;4248;48.196;10.924;2023-03-15T03:34:20;2.40;69.20
8422;DHT22;4248;48.196;10.924;2023-03-15T03:36:46;2.30;69.10
8422;DHT22;4248;48.196;10.924;2023-03-15T03:39:13;2.30;69.00
8422;DHT22;4248;48.196;10.924;2023-03-15T03:41:39;2.20;69.20
8422;DHT22;4248;48.196;10.924;2023-03-15T03:44:04;2.10;69.40
8422;DHT22;4248;48.196;10.924;2023-03-15T03:46:30;2.10;69.40
8422;DHT22;4248;48.196;10.924;2023-03-15T03:48:56;2.10;69.30
8422;DHT22;4248;48.196;10.924;2023-03-15T03:51:21;2.10;69.40
8422;DHT22;4248;48.196;10.924;2023-03-15T03:53:47;2.10;69.10
8422;DHT22;4248;48.196;10.924;2023-03-15T03:56:12;2.20;68.90
8422;DHT22;4248;48.196;10.924;2023-03-15T03:58:38;2.20;68.80
8422;DHT22;4248;48.196;10.924;2023-03-15T04:01:04;2.20;68.70
8422;DHT22;4248;48.196;10.924;2023-03-15T04:03:30;2.20;68.60
8422;DHT22;4248;48.196;10.924;2023-03-15T04:05:57;2.20;68.80
8422;DHT22;4248;48.196;10.924;2023-03-15T04:08:24;2.20;68.60
8422;DHT22;4248;48.196;10.924;2023-03-15T04:10:54;2.20;68.30
8422;DHT22;4248;48.196;10.924;2023-03-15T04:13:21;2.30;68.20
8422;DHT22;4248;48.196;10.924;2023-03-15T04:15:47;2.30;68.10
8422;DHT22;4248;48.196;10.924;2023-03-15T04:18:13;2.40;68.20
8422;DHT22;4248;48.196;10.924;2023-03-15T04:20:39;2.30;68.20
8422;DHT22;4248;48.196;10.924;2023-03-15T04:23:14;2.20;68.10
8422;DHT22;4248;48.196;10.924;2023-03-15T04:25:41;2.20;68.10
8422;DHT22;4248;48.196;10.924;2023-03-15T04:28:10;2.20;68.10
8422;DHT22;4248;48.196;10.924;2023-03-15T04:30:36;2.10;68.10
8422;DHT22;4248;48.196;10.924;2023-03-15T04:33:03;2.10;68.20
8422;DHT22;4248;48.196;10.924;2023-03-15T04:35:30;2.10;68.20
8422;DHT22;4248;48.196;10.924;2023-03-15T04:37:56;2.00;68.10
8422;DHT22;4248;48.196;10.924;2023-03-15T04:40:23;2.00;68.20
8422;DHT22;4248;48.196;10.924;2023-03-15T04:42:50;2.00;68.30
8422;DHT22;4248;48.196;10.924;2023-03-15T04:45:16;1.90;68.40
8422;DHT22;4248;48.196;10.924;2023-03-15T04:47:42;1.80;68.40
8422;DHT22;4248;48.196;10.924;2023-03-15T04:50:08;1.80;69.80
8422;DHT22;4248;48.196;10.924;2023-03-15T04:52:34;1.70;68.90
8422;DHT22;4248;48.196;10.924;2023-03-15T04:54:59;1.60;69.20
8422;DHT22;4248;48.196;10.924;2023-03-15T04:57:25;1.60;69.50
8422;DHT22;4248;48.196;10.924;2023-03-15T04:59:50;1.50;69.60
8422;DHT22;4248;48.196;10.924;2023-03-15T05:02:16;1.50;70.00
8422;DHT22;4248;48.196;10.924;2023-03-15T05:04:42;1.40;70.50
8422;DHT22;4248;48.196;10.924;2023-03-15T05:07:08;1.40;70.60
8422;DHT22;4248;48.196;10.924;2023-03-15T05:09:34;1.40;70.50
8422;DHT22;4248;48.196;10.924;2023-03-15T05:12:05;1.40;70.50
8422;DHT22;4248;48.196;10.924;2023-03-15T05:14:32;1.30;70.50
8422;DHT22;4248;48.196;10.924;2023-03-15T05:16:58;1.30;70.50
8422;DHT22;4248;48.196;10.924;2023-03-15T05:19:27;1.30;70.50
8422;DHT22;4248;48.196;10.924;2023-03-15T05:21:53;1.20;70.40
8422;DHT22;4248;48.196;10.924;2023-03-15T05:24:21;1.10;70.30
8422;DHT22;4248;48.196;10.924;2023-03-15T05:26:47;1.10;70.70
8422;DHT22;4248;48.196;10.924;2023-03-15T05:29:13;1.10;71.00
8422;DHT22;4248;48.196;10.924;2023-03-15T05:31:39;1.00;71.30
8422;DHT22;4248;48.196;10.924;2023-03-15T05:34:05;1.00;71.70
8422;DHT22;4248;48.196;10.924;2023-03-15T05:36:32;1.00;71.70
8422;DHT22;4248;48.196;10.924;2023-03-15T05:38:58;1.10;71.50
8422;DHT22;4248;48.196;10.924;2023-03-15T05:41:23;1.20;70.80
8422;DHT22;4248;48.196;10.924;2023-03-15T05:43:50;1.30;70.50
8422;DHT22;4248;48.196;10.924;2023-03-15T05:46:15;1.40;70.50
8422;DHT22;4248;48.196;10.924;2023-03-15T05:48:41;1.50;70.60
8422;DHT22;4248;48.196;10.924;2023-03-15T05:51:06;1.60;69.70
8422;DHT22;4248;48.196;10.924;2023-03-15T05:53:32;1.80;69.20
8422;DHT22;4248;48.196;10.924;2023-03-15T05:55:58;1.90;68.90
8422;DHT22;4248;48.196;10.924;2023-03-15T05:58:24;1.90;68.80
8422;DHT22;4248;48.196;10.924;2023-03-15T06:00:49;2.00;68.70
8422;DHT22;4248;48.196;10.924;2023-03-15T06:03:15;2.10;68.60
8422;DHT22;4248;48.196;10.924;2023-03-15T06:05:41;2.30;68.30
8422;DHT22;4248;48.196;10.924;2023-03-15T06:08:07;2.40;68.20
8422;DHT22;4248;48.196;10.924;2023-03-15T06:10:32;2.50;68.00
8422;DHT22;4248;48.196;10.924;2023-03-15T06:12:58;2.60;67.90
8422;DHT22;4248;48.196;10.924;2023-03-15T06:15:24;2.70;67.50
8422;DHT22;4248;48.196;10.924;2023-03-15T06:17:50;2.70;67.20
8422;DHT22;4248;48.196;10.924;2023-03-15T06:20:15;2.70;67.10
8422;DHT22;4248;48.196;10.924;2023-03-15T06:22:41;2.70;67.00
8422;DHT22;4248;48.196;10.924;2023-03-15T06:25:07;2.70;66.90
8422;DHT22;4248;48.196;10.924;2023-03-15T06:27:33;2.70;67.00
8422;DHT22;4248;48.196;10.924;2023-03-15T06:29:59;2.60;67.40
8422;DHT22;4248;48.196;10.924;2023-03-15T06:32:24;2.40;67.50
8422;DHT22;4248;48.196;10.924;2023-03-15T06:34:50;2.40;67.80
8422;DHT22;4248;48.196;10.924;2023-03-15T06:37:16;2.40;67.90
8422;DHT22;4248;48.196;10.924;2023-03-15T06:39:41;2.50;67.60
8422;DHT22;4248;48.196;10.924;2023-03-15T06:42:09;2.60;67.40
8422;DHT22;4248;48.196;10.924;2023-03-15T06:44:37;2.80;67.00
8422;DHT22;4248;48.196;10.924;2023-03-15T06:47:03;3.10;66.50
8422;DHT22;4248;48.196;10.924;2023-03-15T06:49:29;3.30;66.20
8422;DHT22;4248;48.196;10.924;2023-03-15T06:51:55;3.20;66.10
8422;DHT22;4248;48.196;10.924;2023-03-15T06:54:21;3.20;66.40
8422;DHT22;4248;48.196;10.924;2023-03-15T06:56:46;3.20;66.60
8422;DHT22;4248;48.196;10.924;2023-03-15T06:59:12;3.30;66.40
8422;DHT22;4248;48.196;10.924;2023-03-15T07:01:37;3.30;66.50
8422;DHT22;4248;48.196;10.924;2023-03-15T07:04:03;3.40;66.40
8422;DHT22;4248;48.196;10.924;2023-03-15T07:06:29;3.60;66.40
8422;DHT22;4248;48.196;10.924;2023-03-15T07:08:54;3.70;66.20
8422;DHT22;4248;48.196;10.924;2023-03-15T07:11:20;3.90;65.80
8422;DHT22;4248;48.196;10.924;2023-03-15T07:13:46;4.00;65.40
8422;DHT22;4248;48.196;10.924;2023-03-15T07:16:11;4.20;65.00
8422;DHT22;4248;48.196;10.924;2023-03-15T07:18:37;4.30;65.00
8422;DHT22;4248;48.196;10.924;2023-03-15T07:21:04;4.30;64.70
8422;DHT22;4248;48.196;10.924;2023-03-15T07:23:30;4.20;64.80
8422;DHT22;4248;48.196;10.924;2023-03-15T07:25:56;4.20;64.90
8422;DHT22;4248;48.196;10.924;2023-03-15T07:28:23;4.20;65.10
8422;DHT22;4248;48.196;10.924;2023-03-15T07:31:00;4.30;64.80
8422;DHT22;4248;48.196;10.924;2023-03-15T07:33:28;4.40;64.80
8422;DHT22;4248;48.196;10.924;2023-03-15T07:35:54;4.40;64.70
8422;DHT22;4248;48.196;10.924;2023-03-15T07:38:26;4.60;64.50
8422;DHT22;4248;48.196;10.924;2023-03-15T07:40:53;4.70;64.10
8422;DHT22;4248;48.196;10.924;2023-03-15T07:43:22;4.80;63.90
8422;DHT22;4248;48.196;10.924;2023-03-15T07:45:48;5.00;62.60
8422;DHT22;4248;48.196;10.924;2023-03-15T07:48:14;5.10;62.10
8422;DHT22;4248;48.196;10.924;2023-03-15T07:50:41;5.00;61.90
8422;DHT22;4248;48.196;10.924;2023-03-15T07:53:06;4.80;62.60
8422;DHT22;4248;48.196;10.924;2023-03-15T07:55:33;4.80;62.30
8422;DHT22;4248;48.196;10.924;2023-03-15T07:57:59;4.80;62.60
8422;DHT22;4248;48.196;10.924;2023-03-15T08:00:24;5.00;62.10
8422;DHT22;4248;48.196;10.924;2023-03-15T08:02:50;5.20;61.80
8422;DHT22;4248;48.196;10.924;2023-03-15T08:05:16;5.30;61.30
8422;DHT22;4248;48.196;10.924;2023-03-15T08:07:48;5.30;61.30
8422;DHT22;4248;48.196;10.924;2023-03-15T08:10:15;5.20;61.30
8422;DHT22;4248;48.196;10.924;2023-03-15T08:12:41;5.20;61.30
8422;DHT22;4248;48.196;10.924;2023-03-15T08:15:11;5.30;61.30
8422;DHT22;4248;48.196;10.924;2023-03-15T08:17:37;5.30;60.10
8422;DHT22;4248;48.196;10.924;2023-03-15T08:20:04;5.30;60.00
8422;DHT22;4248;48.196;10.924;2023-03-15T08:22:30;5.40;59.90
8422;DHT22;4248;48.196;10.924;2023-03-15T08:24:56;5.60;59.00
8422;DHT22;4248;48.196;10.924;2023-03-15T08:27:24;5.50;58.00
8422;DHT22;4248;48.196;10.924;2023-03-15T08:29:50;5.60;58.30
8422;DHT22;4248;48.196;10.924;2023-03-15T08:32:17;5.80;58.90
8422;DHT22;4248;48.196;10.924;2023-03-15T08:34:44;5.50;55.90
8422;DHT22;4248;48.196;10.924;2023-03-15T08:37:10;5.60;56.50
8422;DHT22;4248;48.196;10.924;2023-03-15T08:39:37;5.70;56.10
8422;DHT22;4248;48.196;10.924;2023-03-15T08:42:03;5.90;55.90
8422;DHT22;4248;48.196;10.924;2023-03-15T08:44:28;5.80;56.00
8422;DHT22;4248;48.196;10.924;2023-03-15T08:46:54;5.70;56.00
8422;DHT22;4248;48.196;10.924;2023-03-15T08:49:19;5.80;56.00
8422;DHT22;4248;48.196;10.924;2023-03-15T08:51:45;5.90;55.50
8422;DHT22;4248;48.196;10.924;2023-03-15T08:54:11;5.60;51.20
8422;DHT22;4248;48.196;10.924;2023-03-15T08:56:39;5.40;52.00
8422;DHT22;4248;48.196;10.924;2023-03-15T08:59:05;5.40;53.10
8422;DHT22;4248;48.196;10.924;2023-03-15T09:01:31;5.50;53.10
8422;DHT22;4248;48.196;10.924;2023-03-15T09:03:57;5.70;52.90
8422;DHT22;4248;48.196;10.924;2023-03-15T09:06:23;5.80;52.00
8422;DHT22;4248;48.196;10.924;2023-03-15T09:08:49;5.70;51.90
8422;DHT22;4248;48.196;10.924;2023-03-15T09:11:14;5.90;52.20
8422;DHT22;4248;48.196;10.924;2023-03-15T09:13:40;5.90;51.50
8422;DHT22;4248;48.196;10.924;2023-03-15T09:16:05;5.90;51.10
8422;DHT22;4248;48.196;10.924;2023-03-15T09:18:32;5.90;51.20
8422;DHT22;4248;48.196;10.924;2023-03-15T09:20:58;6.00;51.10
8422;DHT22;4248;48.196;10.924;2023-03-15T09:23:23;6.10;50.80
8422;DHT22;4248;48.196;10.924;2023-03-15T09:25:49;6.20;51.00
8422;DHT22;4248;48.196;10.924;2023-03-15T09:28:15;6.10;50.10
8422;DHT22;4248;48.196;10.924;2023-03-15T09:30:41;6.00;51.40
8422;DHT22;4248;48.196;10.924;2023-03-15T09:33:07;6.00;49.90
8422;DHT22;4248;48.196;10.924;2023-03-15T09:35:32;6.10;49.70
8422;DHT22;4248;48.196;10.924;2023-03-15T09:37:59;6.00;50.40
8422;DHT22;4248;48.196;10.924;2023-03-15T09:40:27;6.20;50.50
8422;DHT22;4248;48.196;10.924;2023-03-15T09:43:36;6.30;49.40
8422;DHT22;4248;48.196;10.924;2023-03-15T09:48:35;6.00;48.30
8422;DHT22;4248;48.196;10.924;2023-03-15T09:51:12;5.70;48.00
8422;DHT22;4248;48.196;10.924;2023-03-15T09:53:51;5.70;48.90
8422;DHT22;4248;48.196;10.924;2023-03-15T09:56:27;6.00;49.20
8422;DHT22;4248;48.196;10.924;2023-03-15T09:58:57;6.00;49.20
8422;DHT22;4248;48.196;10.924;2023-03-15T10:01:35;6.00;49.20
8422;DHT22;4248;48.196;10.924;2023-03-15T10:04:17;6.20;49.30
8422;DHT22;4248;48.196;10.924;2023-03-15T10:06:52;6.50;48.00
8422;DHT22;4248;48.196;10.924;2023-03-15T10:09:22;6.70;47.40
8422;DHT22;4248;48.196;10.924;2023-03-15T10:12:13;6.90;47.20
8422;DHT22;4248;48.196;10.924;2023-03-15T10:20:15;7.00;45.60
8422;DHT22;4248;48.196;10.924;2023-03-15T10:22:57;6.50;42.60
8422;DHT22;4248;48.196;10.924;2023-03-15T10:25:27;6.30;41.40
8422;DHT22;4248;48.196;10.924;2023-03-15T10:27:59;6.10;41.30
8422;DHT22;4248;48.196;10.924;2023-03-15T10:30:29;6.00;42.20
8422;DHT22;4248;48.196;10.924;2023-03-15T10:33:01;6.10;42.20
8422;DHT22;4248;48.196;10.924;2023-03-15T10:35:28;6.20;41.70
8422;DHT22;4248;48.196;10.924;2023-03-15T10:37:54;6.20;41.30
8422;DHT22;4248;48.196;10.924;2023-03-15T10:40:44;6.20;41.40
8422;DHT22;4248;48.196;10.924;2023-03-15T10:43:20;6.10;39.40
8422;DHT22;4248;48.196;10.924;2023-03-15T10:46:10;6.20;40.00
8422;DHT22;4248;48.196;10.924;2023-03-15T10:51:28;6.60;39.40
8422;DHT22;4248;48.196;10.924;2023-03-15T10:54:00;6.80;39.10
8422;DHT22;4248;48.196;10.924;2023-03-15T10:56:33;6.60;37.80
8422;DHT22;4248;48.196;10.924;2023-03-15T10:58:59;6.30;37.40
8422;DHT22;4248;48.196;10.924;2023-03-15T11:01:28;6.50;37.90
8422;DHT22;4248;48.196;10.924;2023-03-15T11:06:42;7.00;37.20
8422;DHT22;4248;48.196;10.924;2023-03-15T11:09:14;7.20;37.00
8422;DHT22;4248;48.196;10.924;2023-03-15T11:14:20;6.90;35.30
8422;DHT22;4248;48.196;10.924;2023-03-15T11:16:49;6.80;34.70
8422;DHT22;4248;48.196;10.924;2023-03-15T11:19:17;6.80;35.20
8422;DHT22;4248;48.196;10.924;2023-03-15T11:21:44;6.60;34.10
8422;DHT22;4248;48.196;10.924;2023-03-15T11:24:19;6.50;34.60
8422;DHT22;4248;48.196;10.924;2023-03-15T11:26:47;6.80;34.60
8422;DHT22;4248;48.196;10.924;2023-03-15T11:29:24;6.90;34.50
8422;DHT22;4248;48.196;10.924;2023-03-15T11:31:51;6.90;33.20
8422;DHT22;4248;48.196;10.924;2023-03-15T11:34:52;6.60;32.70
8422;DHT22;4248;48.196;10.924;2023-03-15T11:37:22;6.50;32.70
8422;DHT22;4248;48.196;10.924;2023-03-15T11:39:57;6.90;33.00
8422;DHT22;4248;48.196;10.924;2023-03-15T11:42:32;7.00;31.30
8422;DHT22;4248;48.196;10.924;2023-03-15T11:45:15;7.00;31.10
8422;DHT22;4248;48.196;10.924;2023-03-15T11:47:52;7.40;30.50
8422;DHT22;4248;48.196;10.924;2023-03-15T11:50:19;8.00;30.80
8422;DHT22;4248;48.196;10.924;2023-03-15T11:52:49;8.50;29.80
8422;DHT22;4248;48.196;10.924;2023-03-15T11:55:26;9.60;30.50
8422;DHT22;4248;48.196;10.924;2023-03-15T11:57:53;9.30;29.90
8422;DHT22;4248;48.196;10.924;2023-03-15T12:06:32;9.50;29.00
8422;DHT22;4248;48.196;10.924;2023-03-15T12:08:59;9.40;27.90
8422;DHT22;4248;48.196;10.924;2023-03-15T12:16:25;8.80;26.10
8422;DHT22;4248;48.196;10.924;2023-03-15T12:18:52;8.90;27.50
8422;DHT22;4248;48.196;10.924;2023-03-15T12:21:39;9.20;27.30
8422;DHT22;4248;48.196;10.924;2023-03-15T12:24:12;9.50;27.40
8422;DHT22;4248;48.196;10.924;2023-03-15T12:26:44;9.60;26.60
8422;DHT22;4248;48.196;10.924;2023-03-15T12:29:17;9.00;26.20
8422;DHT22;4248;48.196;10.924;2023-03-15T12:31:49;8.70;27.10
8422;DHT22;4248;48.196;10.924;2023-03-15T12:37:19;8.90;27.70
8422;DHT22;4248;48.196;10.924;2023-03-15T12:40:00;8.80;27.20
8422;DHT22;4248;48.196;10.924;2023-03-15T12:47:45;9.40;26.60
8422;DHT22;4248;48.196;10.924;2023-03-15T12:58:59;8.70;26.00
8422;DHT22;4248;48.196;10.924;2023-03-15T13:01:29;9.00;26.20
8422;DHT22;4248;48.196;10.924;2023-03-15T13:03:56;9.30;26.40
8422;DHT22;4248;48.196;10.924;2023-03-15T13:09:02;9.20;26.20
8422;DHT22;4248;48.196;10.924;2023-03-15T13:12:00;8.90;25.40
8422;DHT22;4248;48.196;10.924;2023-03-15T13:14:41;8.60;25.90
8422;DHT22;4248;48.196;10.924;2023-03-15T13:17:20;9.00;26.20
8422;DHT22;4248;48.196;10.924;2023-03-15T13:20:12;9.30;26.40
8422;DHT22;4248;48.196;10.924;2023-03-15T13:23:04;9.30;26.40
8422;DHT22;4248;48.196;10.924;2023-03-15T13:25:45;8.70;24.60
8422;DHT22;4248;48.196;10.924;2023-03-15T13:28:29;8.70;25.40
8422;DHT22;4248;48.196;10.924;2023-03-15T13:31:10;8.90;24.50
8422;DHT22;4248;48.196;10.924;2023-03-15T13:33:37;8.50;20.90
8422;DHT22;4248;48.196;10.924;2023-03-15T13:36:10;8.50;22.10
8422;DHT22;4248;48.196;10.924;2023-03-15T13:38:41;8.60;22.10
8422;DHT22;4248;48.196;10.924;2023-03-15T13:43:42;8.30;22.70
8422;DHT22;4248;48.196;10.924;2023-03-15T13:46:09;8.30;21.80
8422;DHT22;4248;48.196;10.924;2023-03-15T13:48:40;8.20;21.60
8422;DHT22;4248;48.196;10.924;2023-03-15T13:51:35;8.00;22.70
8422;DHT22;4248;48.196;10.924;2023-03-15T13:59:20;8.00;22.30
8422;DHT22;4248;48.196;10.924;2023-03-15T14:01:48;7.90;21.50
8422;DHT22;4248;48.196;10.924;2023-03-15T14:04:18;7.90;21.20
8422;DHT22;4248;48.196;10.924;2023-03-15T14:06:45;7.90;21.30
8422;DHT22;4248;48.196;10.924;2023-03-15T14:09:22;8.00;21.70
8422;DHT22;4248;48.196;10.924;2023-03-15T14:12:05;8.20;21.50
8422;DHT22;4248;48.196;10.924;2023-03-15T14:14:35;8.20;20.50
8422;DHT22;4248;48.196;10.924;2023-03-15T14:17:07;8.30;20.80
8422;DHT22;4248;48.196;10.924;2023-03-15T14:19:54;8.40;20.70
8422;DHT22;4248;48.196;10.924;2023-03-15T14:22:21;8.40;20.10
8422;DHT22;4248;48.196;10.924;2023-03-15T14:24:49;8.30;19.30
8422;DHT22;4248;48.196;10.924;2023-03-15T14:27:19;8.30;19.30
8422;DHT22;4248;48.196;10.924;2023-03-15T14:29:57;8.40;18.90
8422;DHT22;4248;48.196;10.924;2023-03-15T14:40:16;7.70;19.10
8422;DHT22;4248;48.196;10.924;2023-03-15T14:42:43;7.60;20.20
8422;DHT22;4248;48.196;10.924;2023-03-15T14:45:09;7.60;20.00
8422;DHT22;4248;48.196;10.924;2023-03-15T14:47:38;7.70;20.40
8422;DHT22;4248;48.196;10.924;2023-03-15T14:50:14;7.80;20.20
8422;DHT22;4248;48.196;10.924;2023-03-15T14:52:43;7.70;20.20
8422;DHT22;4248;48.196;10.924;2023-03-15T14:55:16;7.60;20.40
8422;DHT22;4248;48.196;10.924;2023-03-15T14:57:42;7.50;21.00
8422;DHT22;4248;48.196;10.924;2023-03-15T15:00:12;7.30;20.80
8422;DHT22;4248;48.196;10.924;2023-03-15T15:02:41;7.40;21.60
8422;DHT22;4248;48.196;10.924;2023-03-15T15:05:31;7.40;21.20
8422;DHT22;4248;48.196;10.924;2023-03-15T15:08:04;7.50;20.80
8422;DHT22;4248;48.196;10.924;2023-03-15T15:10:31;7.40;20.00
8422;DHT22;4248;48.196;10.924;2023-03-15T15:12:59;7.30;20.00
8422;DHT22;4248;48.196;10.924;2023-03-15T15:15:25;7.30;20.30
8422;DHT22;4248;48.196;10.924;2023-03-15T15:17:50;7.40;20.30
8422;DHT22;4248;48.196;10.924;2023-03-15T15:20:18;7.40;20.40
8422;DHT22;4248;48.196;10.924;2023-03-15T15:22:47;7.60;20.60
8422;DHT22;4248;48.196;10.924;2023-03-15T15:25:22;7.50;20.50
8422;DHT22;4248;48.196;10.924;2023-03-15T15:27:54;7.40;20.30
8422;DHT22;4248;48.196;10.924;2023-03-15T15:30:22;7.30;20.70
8422;DHT22;4248;48.196;10.924;2023-03-15T15:32:49;7.30;21.00
8422;DHT22;4248;48.196;10.924;2023-03-15T15:35:17;7.10;20.70
8422;DHT22;4248;48.196;10.924;2023-03-15T15:37:44;7.20;21.30
8422;DHT22;4248;48.196;10.924;2023-03-15T15:40:31;7.20;21.10
8422;DHT22;4248;48.196;10.924;2023-03-15T15:42:57;7.20;21.60
8422;DHT22;4248;48.196;10.924;2023-03-15T15:45:23;7.20;21.10
8422;DHT22;4248;48.196;10.924;2023-03-15T15:47:50;7.20;21.00
8422;DHT22;4248;48.196;10.924;2023-03-15T15:50:17;7.20;21.10
8422;DHT22;4248;48.196;10.924;2023-03-15T15:52:48;7.10;21.50
8422;DHT22;4248;48.196;10.924;2023-03-15T15:55:18;7.10;21.30
8422;DHT22;4248;48.196;10.924;2023-03-15T15:57:46;7.00;20.90
8422;DHT22;4248;48.196;10.924;2023-03-15T16:00:15;6.90;20.10
8422;DHT22;4248;48.196;10.924;2023-03-15T16:02:42;7.00;20.70
8422;DHT22;4248;48.196;10.924;2023-03-15T16:05:07;7.00;20.70
8422;DHT22;4248;48.196;10.924;2023-03-15T16:07:34;7.00;20.90
8422;DHT22;4248;48.196;10.924;2023-03-15T16:10:01;7.00;20.80
8422;DHT22;4248;48.196;10.924;2023-03-15T16:12:28;6.90;20.80
8422;DHT22;4248;48.196;10.924;2023-03-15T16:14:54;6.80;21.00
8422;DHT22;4248;48.196;10.924;2023-03-15T16:17:23;6.90;21.30
8422;DHT22;4248;48.196;10.924;2023-03-15T16:19:49;6.90;21.40
8422;DHT22;4248;48.196;10.924;2023-03-15T16:22:16;6.90;21.50
8422;DHT22;4248;48.196;10.924;2023-03-15T16:24:45;6.90;21.70
8422;DHT22;4248;48.196;10.924;2023-03-15T16:27:15;6.90;21.90
8422;DHT22;4248;48.196;10.924;2023-03-15T16:29:46;6.80;21.90
8422;DHT22;4248;48.196;10.924;2023-03-15T16:34:39;6.70;22.40
8422;DHT22;4248;48.196;10.924;2023-03-15T16:37:11;6.70;22.70
8422;DHT22;4248;48.196;10.924;2023-03-15T16:39:39;6.60;23.10
8422;DHT22;4248;48.196;10.924;2023-03-15T16:42:05;6.40;24.00
8422;DHT22;4248;48.196;10.924;2023-03-15T16:44:30;6.20;24.30
8422;DHT22;4248;48.196;10.924;2023-03-15T16:46:57;5.90;25.70
8422;DHT22;4248;48.196;10.924;2023-03-15T16:49:23;5.70;26.50
8422;DHT22;4248;48.196;10.924;2023-03-15T16:51:51;5.70;27.00
8422;DHT22;4248;48.196;10.924;2023-03-15T16:54:18;5.50;27.50
8422;DHT22;4248;48.196;10.924;2023-03-15T16:56:44;5.50;28.10
8422;DHT22;4248;48.196;10.924;2023-03-15T16:59:14;5.40;28.50
8422;DHT22;4248;48.196;10.924;2023-03-15T17:01:40;5.40;28.70
8422;DHT22;4248;48.196;10.924;2023-03-15T17:04:07;5.40;29.10
8422;DHT22;4248;48.196;10.924;2023-03-15T17:06:32;5.30;29.30
8422;DHT22;4248;48.196;10.924;2023-03-15T17:09:06;5.40;29.20
8422;DHT22;4248;48.196;10.924;2023-03-15T17:11:37;5.50;29.30
8422;DHT22;4248;48.196;10.924;2023-03-15T17:14:04;5.40;30.10
8422;DHT22;4248;48.196;10.924;2023-03-15T17:16:30;5.40;29.50
8422;DHT22;4248;48.196;10.924;2023-03-15T17:18:56;5.40;29.70
8422;DHT22;4248;48.196;10.924;2023-03-15T17:21:23;5.40;29.70
8422;DHT22;4248;48.196;10.924;2023-03-15T17:23:50;5.40;29.90
8422;DHT22;4248;48.196;10.924;2023-03-15T17:26:21;5.40;30.00